createdAt,value
2019-04-06T00:01:45.175Z,100220.45
2019-04-06T00:04:21.347Z,100224.47
2019-04-06T00:06:54.167Z,100216.56
2019-04-06T00:09:26.925Z,100219.27
2019-04-06T00:11:59.702Z,100218.40
2019-04-06T00:14:33.092Z,100225.44
2019-04-06T00:17:05.972Z,100225.94
2019-04-06T00:19:39.891Z,100221.10
2019-04-06T00:22:12.813Z,100223.37
2019-04-06T00:24:45.715Z,100226.06
2019-04-06T00:27:21.735Z,100232.27
2019-04-06T00:29:56.653Z,100219.58
2019-04-06T00:32:36.570Z,100227.45
2019-04-06T00:35:10.762Z,100231.45
2019-04-06T00:37:43.641Z,100227.52
2019-04-06T00:40:17.522Z,100226.70
2019-04-06T00:42:50.466Z,100241.25
2019-04-06T00:45:23.390Z,100238.16
2019-04-06T00:47:56.184Z,100237.76
2019-04-06T00:50:29.044Z,100240.00
2019-04-06T00:53:02.839Z,100238.69
2019-04-06T00:55:35.831Z,100237.81
2019-04-06T00:58:15.699Z,100240.49
2019-04-06T01:00:48.540Z,100235.23
2019-04-06T01:03:21.332Z,100234.84
2019-04-06T01:05:56.389Z,100230.92
2019-04-06T01:08:29.234Z,100235.33
2019-04-06T01:11:03.199Z,100235.33
2019-04-06T01:13:38.216Z,100239.77
2019-04-06T01:16:11.286Z,100235.85
2019-04-06T01:18:44.249Z,100237.18
2019-04-06T01:21:17.152Z,100243.38
2019-04-06T01:23:50.095Z,100244.29
2019-04-06T01:26:23.025Z,100246.48
2019-04-06T01:28:55.821Z,100241.70
2019-04-06T01:31:30.688Z,100239.94
2019-04-06T01:34:03.529Z,100246.12
2019-04-06T01:36:38.356Z,100240.86
2019-04-06T01:39:13.442Z,100243.97
2019-04-06T01:41:46.350Z,100238.73
2019-04-06T01:44:19.334Z,100244.03
2019-04-06T01:46:52.123Z,100247.55
2019-04-06T01:49:31.517Z,100254.60
2019-04-06T01:52:05.300Z,100253.31
2019-04-06T01:54:38.113Z,100251.12
2019-04-06T01:57:12.581Z,100250.27
2019-04-06T01:59:46.589Z,100247.63
2019-04-06T02:02:30.572Z,100250.30
2019-04-06T02:05:06.339Z,100256.46
2019-04-06T02:07:39.202Z,100249.44
2019-04-06T02:10:14.130Z,100256.05
2019-04-06T02:12:49.510Z,100257.83
2019-04-06T02:15:24.817Z,100264.41
2019-04-06T02:18:02.275Z,100260.48
2019-04-06T02:20:36.174Z,100270.14
2019-04-06T02:23:08.965Z,100263.14
2019-04-06T02:25:41.819Z,100274.55
2019-04-06T02:28:15.406Z,100271.89
2019-04-06T02:31:00.729Z,100270.13
2019-04-06T02:33:52.516Z,100276.30
2019-04-06T02:36:42.085Z,100267.53
2019-04-06T02:39:31.888Z,100276.30
2019-04-06T02:42:12.707Z,100272.34
2019-04-06T02:44:45.978Z,100271.48
2019-04-06T02:47:18.775Z,100279.81
2019-04-06T02:49:51.613Z,100275.88
2019-04-06T02:52:25.493Z,100274.13
2019-04-06T02:54:58.415Z,100275.88
2019-04-06T02:57:31.302Z,100271.06
2019-04-06T03:00:04.343Z,100271.06
2019-04-06T03:02:39.334Z,100272.80
2019-04-06T03:05:13.416Z,100268.41
2019-04-06T03:07:46.514Z,100271.92
2019-04-06T03:10:20.841Z,100270.61
2019-04-06T03:12:53.679Z,100276.31
2019-04-06T03:15:26.625Z,100277.20
2019-04-06T03:17:59.699Z,100277.64
2019-04-06T03:20:32.611Z,100274.11
2019-04-06T03:23:07.139Z,100275.00
2019-04-06T03:25:41.086Z,100275.43
2019-04-06T03:28:17.779Z,100273.66
2019-04-06T03:30:50.703Z,100274.11
2019-04-06T03:33:30.513Z,100271.92
2019-04-06T03:36:04.897Z,100276.72
2019-04-06T03:38:37.828Z,100284.19
2019-04-06T03:41:13.369Z,100276.30
2019-04-06T03:43:53.304Z,100271.01
2019-04-06T03:46:30.381Z,100278.03
2019-04-06T03:49:05.304Z,100275.83
2019-04-06T03:51:41.806Z,100284.58
2019-04-06T03:54:14.723Z,100281.95
2019-04-06T03:56:47.794Z,100283.69
2019-04-06T03:59:21.804Z,100282.40
2019-04-06T04:01:54.747Z,100287.64
2019-04-06T04:04:27.666Z,100287.63
2019-04-06T04:07:00.690Z,100281.47
2019-04-06T04:09:33.576Z,100285.44
2019-04-06T04:12:09.671Z,100286.71
2019-04-06T04:14:45.752Z,100286.27
2019-04-06T04:17:18.537Z,100285.41
2019-04-06T04:19:51.358Z,100291.08
2019-04-06T04:22:24.546Z,100294.14
2019-04-06T04:24:58.585Z,100294.58
2019-04-06T04:27:31.385Z,100296.73
2019-04-06T04:30:04.573Z,100294.09
2019-04-06T04:32:37.534Z,100298.45
2019-04-06T04:35:10.678Z,100294.08
2019-04-06T04:37:43.974Z,100293.63
2019-04-06T04:40:16.804Z,100291.45
2019-04-06T04:42:49.726Z,100289.70
2019-04-06T04:45:22.581Z,100291.43
2019-04-06T04:47:55.755Z,100294.49
2019-04-06T04:50:28.642Z,100293.20
2019-04-06T04:53:01.786Z,100293.63
2019-04-06T04:55:36.414Z,100290.14
2019-04-06T04:58:09.361Z,100297.59
2019-04-06T05:00:42.109Z,100301.56
2019-04-06T05:03:14.963Z,100297.63
2019-04-06T05:05:47.792Z,100303.31
2019-04-06T05:08:20.799Z,100301.56
2019-04-06T05:10:53.577Z,100307.26
2019-04-06T05:13:26.434Z,100306.42
2019-04-06T05:16:24.588Z,100304.68
2019-04-06T05:18:57.350Z,100304.30
2019-04-06T05:21:30.175Z,100304.74
2019-04-06T05:24:03.009Z,100308.73
2019-04-06T05:26:37.879Z,100311.78
2019-04-06T05:29:10.435Z,100313.09
2019-04-06T05:31:43.185Z,100319.25
2019-04-06T05:34:16.048Z,100315.77
2019-04-06T05:36:48.925Z,100318.39
2019-04-06T05:39:21.705Z,100332.41
2019-04-06T05:41:54.717Z,100334.19
2019-04-06T05:44:27.607Z,100325.85
2019-04-06T05:47:00.819Z,100327.60
2019-04-06T05:49:33.924Z,100328.95
2019-04-06T05:52:06.874Z,100330.25
2019-04-06T05:54:39.814Z,100334.64
2019-04-06T05:57:12.830Z,100328.94
2019-04-06T05:59:45.636Z,100328.08
2019-04-06T06:02:19.041Z,100320.15
2019-04-06T06:04:51.999Z,100328.50
2019-04-06T06:07:24.888Z,100330.26
2019-04-06T06:09:57.672Z,100331.12
2019-04-06T06:12:30.470Z,100333.36
2019-04-06T06:15:03.514Z,100331.60
2019-04-06T06:17:36.406Z,100332.46
2019-04-06T06:20:09.770Z,100328.94
2019-04-06T06:22:42.595Z,100337.70
2019-04-06T06:25:15.702Z,100334.19
2019-04-06T06:27:48.550Z,100336.82
2019-04-06T06:30:24.412Z,100337.27
2019-04-06T06:32:57.365Z,100331.08
2019-04-06T06:35:30.198Z,100344.25
2019-04-06T06:38:03.016Z,100345.53
2019-04-06T06:40:35.945Z,100340.73
2019-04-06T06:43:08.768Z,100339.41
2019-04-06T06:45:41.768Z,100341.57
2019-04-06T06:48:14.602Z,100345.51
2019-04-06T06:50:48.518Z,100342.38
2019-04-06T06:53:21.330Z,100339.75
2019-04-06T06:55:54.397Z,100340.14
2019-04-06T06:58:27.195Z,100350.22
2019-04-06T07:00:59.996Z,100349.31
2019-04-06T07:03:33.071Z,100342.72
2019-04-06T07:06:05.997Z,100353.20
2019-04-06T07:08:39.668Z,100348.40
2019-04-06T07:11:12.541Z,100347.93
2019-04-06T07:13:45.496Z,100356.17
2019-04-06T07:16:18.442Z,100350.02
2019-04-06T07:18:51.259Z,100352.19
2019-04-06T07:21:24.085Z,100352.09
2019-04-06T07:23:56.870Z,100352.94
2019-04-06T07:26:29.658Z,100351.52
2019-04-06T07:29:02.733Z,100348.38
2019-04-06T07:31:35.525Z,100356.53
2019-04-06T07:34:08.305Z,100345.08
2019-04-06T07:36:41.086Z,100344.45
2019-04-06T07:39:14.016Z,100347.72
2019-04-06T07:41:46.859Z,100350.09
2019-04-06T07:44:19.646Z,100347.12
2019-04-06T07:46:52.683Z,100355.53
2019-04-06T07:49:25.615Z,100347.31
2019-04-06T07:51:58.438Z,100351.82
2019-04-06T07:54:31.294Z,100351.45
2019-04-06T07:57:04.443Z,100346.40
2019-04-06T07:59:37.381Z,100344.51
2019-04-06T08:02:10.188Z,100348.58
2019-04-06T08:04:43.109Z,100337.87
2019-04-06T08:07:15.937Z,100339.14
2019-04-06T08:09:48.758Z,100347.20
2019-04-06T08:12:21.677Z,100341.41
2019-04-06T08:14:57.398Z,100340.34
2019-04-06T08:17:31.554Z,100336.41
2019-04-06T08:20:05.184Z,100342.82
2019-04-06T08:22:37.998Z,100340.03
2019-04-06T08:25:11.501Z,100337.24
2019-04-06T08:27:44.558Z,100337.84
2019-04-06T08:30:17.509Z,100335.19
2019-04-06T08:32:50.345Z,100335.46
2019-04-06T08:35:26.090Z,100333.27
2019-04-06T08:37:57.869Z,100325.20
2019-04-06T08:40:31.025Z,100322.70
2019-04-06T08:43:03.828Z,100326.04
2019-04-06T08:45:36.641Z,100322.88
2019-04-06T08:48:09.453Z,100325.27
2019-04-06T08:50:42.367Z,100324.25
2019-04-06T08:53:15.304Z,100312.42
2019-04-06T08:55:48.196Z,100314.68
2019-04-06T08:58:21.498Z,100317.38
2019-04-06T09:00:54.403Z,100308.41
2019-04-06T09:03:27.666Z,100317.32
2019-04-06T09:06:00.516Z,100311.87
2019-04-06T09:08:33.295Z,100305.37
2019-04-06T09:11:06.190Z,100309.30
2019-04-06T09:13:40.416Z,100302.98
2019-04-06T09:16:13.528Z,100304.36
2019-04-06T09:18:49.154Z,100302.30
2019-04-06T09:21:22.634Z,100302.61
2019-04-06T09:23:58.209Z,100302.68
2019-04-06T09:26:30.440Z,100305.95
2019-04-06T09:29:03.315Z,100306.98
2019-04-06T09:31:36.287Z,100300.32
2019-04-06T09:34:10.086Z,100302.88
2019-04-06T09:36:43.472Z,100314.30
2019-04-06T09:39:16.211Z,100306.48
2019-04-06T09:41:49.234Z,100298.75
2019-04-06T09:44:39.866Z,100300.45
2019-04-06T09:47:20.854Z,100293.07
2019-04-06T09:50:11.426Z,100296.91
2019-04-06T09:53:04.489Z,100294.84
2019-04-06T09:55:58.733Z,100303.42
2019-04-06T09:58:53.321Z,100291.94
2019-04-06T10:01:48.037Z,100293.20
2019-04-06T10:04:55.507Z,100297.77
2019-04-06T10:08:05.741Z,100296.22
2019-04-06T10:10:52.433Z,100294.50
2019-04-06T10:13:45.182Z,100294.87
2019-04-06T10:16:45.750Z,100291.29
2019-04-06T10:19:35.855Z,100286.59
2019-04-06T10:22:27.263Z,100277.36
2019-04-06T10:25:21.734Z,100276.36
2019-04-06T10:28:31.905Z,100281.20
2019-04-06T10:31:18.107Z,100274.11
2019-04-06T10:34:20.884Z,100274.73
2019-04-06T10:37:12.044Z,100280.68
2019-04-06T10:39:53.068Z,100274.95
2019-04-06T10:42:32.800Z,100275.50
2019-04-06T10:45:24.734Z,100271.75
2019-04-06T10:48:18.081Z,100273.67
2019-04-06T10:51:19.022Z,100265.62
2019-04-06T10:54:13.104Z,100263.77
2019-04-06T10:57:23.003Z,100257.28
2019-04-06T11:00:17.426Z,100264.30
2019-04-06T11:02:58.007Z,100257.55
2019-04-06T11:05:55.728Z,100262.05
2019-04-06T11:08:36.489Z,100259.09
2019-04-06T11:11:22.858Z,100264.34
2019-04-06T11:14:26.819Z,100256.17
2019-04-06T11:17:09.983Z,100258.86
2019-04-06T11:20:01.899Z,100258.69
2019-04-06T11:23:10.292Z,100252.58
2019-04-06T11:26:20.344Z,100262.05
2019-04-06T11:29:18.211Z,100254.72
2019-04-06T11:32:00.762Z,100258.14
2019-04-06T11:34:51.406Z,100253.53
2019-04-06T11:37:42.121Z,100248.47
2019-04-06T11:40:40.628Z,100246.19
2019-04-06T11:43:41.405Z,100246.16
2019-04-06T11:46:36.024Z,100240.42
2019-04-06T11:49:20.100Z,100237.21
2019-04-06T11:52:04.373Z,100241.56
2019-04-06T11:54:54.612Z,100240.14
2019-04-06T11:57:46.320Z,100238.23
2019-04-06T12:00:44.167Z,100239.73
2019-04-06T12:03:25.559Z,100239.75
2019-04-06T12:06:20.193Z,100238.23
2019-04-06T12:09:10.913Z,100235.33
2019-04-06T12:12:01.239Z,100223.31
2019-04-06T12:14:52.426Z,100214.40
2019-04-06T12:17:35.555Z,100223.95
2019-04-06T12:20:34.042Z,100222.44
2019-04-06T12:23:25.332Z,100217.24
2019-04-06T12:26:17.352Z,100207.30
2019-04-06T12:29:09.084Z,100209.84
2019-04-06T12:31:59.944Z,100215.02
2019-04-06T12:34:47.959Z,100199.58
2019-04-06T12:37:37.927Z,100199.25
2019-04-06T12:40:20.318Z,100194.56
2019-04-06T12:43:06.052Z,100193.17
2019-04-06T12:45:56.528Z,100193.26
2019-04-06T12:49:06.467Z,100185.76
2019-04-06T12:51:58.887Z,100180.95
2019-04-06T12:54:59.468Z,100184.41
2019-04-06T12:57:41.125Z,100189.63
2019-04-06T13:00:32.579Z,100174.94
2019-04-06T13:03:22.934Z,100179.96
2019-04-06T13:06:09.378Z,100185.47
2019-04-06T13:09:07.106Z,100185.19
2019-04-06T13:12:04.677Z,100170.20
2019-04-06T13:14:56.336Z,100171.91
2019-04-06T13:17:45.272Z,100167.23
2019-04-06T13:20:49.133Z,100162.30
2019-04-06T13:23:28.619Z,100161.89
2019-04-06T13:26:38.590Z,100168.86
2019-04-06T13:29:36.756Z,100170.78
2019-04-06T13:32:43.499Z,100162.69
2019-04-06T13:35:50.535Z,100164.25
2019-04-06T13:38:34.408Z,100162.97
2019-04-06T13:41:29.196Z,100151.05
2019-04-06T13:44:20.870Z,100156.69
2019-04-06T13:47:05.941Z,100157.28
2019-04-06T13:50:06.681Z,100155.34
2019-04-06T13:53:04.769Z,100145.98
2019-04-06T13:55:59.232Z,100150.73
2019-04-06T13:58:53.802Z,100155.94
2019-04-06T14:01:48.464Z,100158.17
2019-04-06T14:04:52.183Z,100160.22
2019-04-06T14:07:41.695Z,100156.55
2019-04-06T14:10:27.392Z,100156.50
2019-04-06T14:13:18.001Z,100161.98
2019-04-06T14:16:09.924Z,100156.42
2019-04-06T14:19:00.918Z,100146.48
2019-04-06T14:21:55.713Z,100150.73
2019-04-06T14:24:53.152Z,100155.44
2019-04-06T14:27:52.446Z,100154.81
2019-04-06T14:30:47.989Z,100148.20
2019-04-06T14:33:48.691Z,100157.09
2019-04-06T14:36:37.754Z,100150.80
2019-04-06T14:39:27.937Z,100143.52
2019-04-06T14:42:35.025Z,100152.80
2019-04-06T14:45:38.936Z,100160.56
2019-04-06T14:48:42.714Z,100144.64
2019-04-06T14:51:27.325Z,100164.36
2019-04-06T14:54:10.147Z,100151.76
2019-04-06T14:56:48.831Z,100153.81
2019-04-06T14:59:48.276Z,100151.75
2019-04-06T15:02:36.942Z,100146.67
2019-04-06T15:05:20.030Z,100124.13
2019-04-06T15:08:05.183Z,100146.59
2019-04-06T15:10:55.399Z,100152.60
2019-04-06T15:13:55.874Z,100154.45
2019-04-06T15:16:54.359Z,100157.07
2019-04-06T15:19:54.938Z,100157.80
2019-04-06T15:22:46.578Z,100157.59
2019-04-06T15:25:31.717Z,100147.23
2019-04-06T15:28:35.741Z,100161.09
2019-04-06T15:31:49.820Z,100152.71
2019-04-06T15:34:35.901Z,100153.39
2019-04-06T15:37:31.262Z,100153.70
2019-04-06T15:40:40.934Z,100156.47
2019-04-06T15:43:25.848Z,100157.56
2019-04-06T15:46:12.306Z,100154.16
2019-04-06T15:49:05.899Z,100154.11
2019-04-06T15:51:46.862Z,100154.88
2019-04-06T15:54:44.719Z,100155.94
2019-04-06T15:57:51.674Z,100154.77
2019-04-06T16:00:46.348Z,100149.81
2019-04-06T16:03:38.124Z,100153.19
2019-04-06T16:06:28.810Z,100143.17
2019-04-06T16:09:23.661Z,100153.95
2019-04-06T16:12:14.582Z,100152.20
2019-04-06T16:15:12.337Z,100153.45
2019-04-06T16:17:52.348Z,100153.23
2019-04-06T16:20:38.916Z,100155.08
2019-04-06T16:23:33.471Z,100156.59
2019-04-06T16:26:23.555Z,100166.96
2019-04-06T16:29:18.652Z,100166.17
2019-04-06T16:32:32.419Z,100161.50
2019-04-06T16:35:17.849Z,100168.08
2019-04-06T16:38:13.234Z,100169.88
2019-04-06T16:41:00.206Z,100170.65
2019-04-06T16:43:52.021Z,100176.20
2019-04-06T16:46:42.790Z,100184.43
2019-04-06T16:49:49.862Z,100181.03
2019-04-06T16:52:41.675Z,100179.13
2019-04-06T16:55:35.659Z,100185.59
2019-04-06T16:58:26.255Z,100182.69
2019-04-06T17:01:08.494Z,100187.81
2019-04-06T17:04:12.783Z,100183.62
2019-04-06T17:07:19.454Z,100184.16
2019-04-06T17:10:26.393Z,100187.50
2019-04-06T17:13:30.332Z,100187.42
2019-04-06T17:16:22.468Z,100186.41
2019-04-06T17:19:17.078Z,100190.66
2019-04-06T17:22:20.679Z,100190.02
2019-04-06T17:25:02.917Z,100189.35
2019-04-06T17:27:57.316Z,100190.92
2019-04-06T17:30:54.277Z,100189.78
2019-04-06T17:33:42.861Z,100195.45
2019-04-06T17:36:48.821Z,100198.34
2019-04-06T17:39:29.821Z,100200.01
2019-04-06T17:42:29.283Z,100198.14
2019-04-06T17:45:33.474Z,100201.06
2019-04-06T17:48:20.485Z,100199.03
2019-04-06T17:51:25.035Z,100198.91
2019-04-06T17:54:27.669Z,100200.44
2019-04-06T17:57:22.350Z,100203.41
2019-04-06T18:00:16.028Z,100210.23
2019-04-06T18:03:11.579Z,100206.83
2019-04-06T18:06:04.850Z,100214.55
2019-04-06T18:08:59.529Z,100213.00
2019-04-06T18:11:42.297Z,100219.38
2019-04-06T18:14:17.832Z,100220.55
2019-04-06T18:16:49.876Z,100222.52
2019-04-06T18:19:22.871Z,100220.56
2019-04-06T18:21:56.100Z,100222.53
2019-04-06T18:24:29.303Z,100225.34
2019-04-06T18:27:02.210Z,100226.80
2019-04-06T18:29:35.289Z,100228.28
2019-04-06T18:32:32.586Z,100229.75
2019-04-06T18:35:06.709Z,100232.11
2019-04-06T18:37:55.914Z,100229.28
2019-04-06T18:40:29.567Z,100236.08
2019-04-06T18:43:02.794Z,100234.50
2019-04-06T18:45:35.818Z,100237.26
2019-04-06T18:48:09.021Z,100239.17
2019-04-06T18:50:42.147Z,100238.31
2019-04-06T18:53:15.081Z,100238.38
2019-04-06T18:55:48.180Z,100238.05
2019-04-06T18:58:21.187Z,100240.33
2019-04-06T19:01:08.971Z,100242.19
2019-04-06T19:03:44.227Z,100254.17
2019-04-06T19:06:17.853Z,100249.87
2019-04-06T19:08:51.259Z,100252.62
2019-04-06T19:11:24.624Z,100244.77
2019-04-06T19:13:57.754Z,100245.73
2019-04-06T19:16:31.191Z,100247.70
2019-04-06T19:19:04.186Z,100250.42
2019-04-06T19:21:37.676Z,100246.16
2019-04-06T19:24:11.254Z,100252.14
2019-04-06T19:26:44.794Z,100247.87
2019-04-06T19:29:18.205Z,100247.58
2019-04-06T19:31:52.637Z,100247.27
2019-04-06T19:34:26.006Z,100242.47
2019-04-06T19:37:00.215Z,100238.20
2019-04-06T19:39:33.435Z,100243.95
2019-04-06T19:42:06.517Z,100239.66
2019-04-06T19:44:39.601Z,100234.45
2019-04-06T19:47:12.592Z,100240.22
2019-04-06T19:49:45.705Z,100235.84
2019-04-06T19:52:18.797Z,100242.08
2019-04-06T19:54:52.221Z,100238.14
2019-04-06T19:57:25.375Z,100242.16
2019-04-06T20:00:00.059Z,100238.29
2019-04-06T20:02:33.467Z,100234.81
2019-04-06T20:05:08.348Z,100240.19
2019-04-06T20:07:43.389Z,100238.95
2019-04-06T20:10:24.078Z,100242.12
2019-04-06T20:12:59.651Z,100238.27
2019-04-06T20:15:35.706Z,100237.02
2019-04-06T20:18:09.242Z,100228.70
2019-04-06T20:20:42.113Z,100229.66
2019-04-06T20:23:15.254Z,100227.95
2019-04-06T20:25:48.129Z,100228.44
2019-04-06T20:28:21.012Z,100225.45
2019-04-06T20:30:54.471Z,100225.98
2019-04-06T20:33:28.374Z,100222.08
2019-04-06T20:36:01.701Z,100223.44
2019-04-06T20:38:34.650Z,100222.19
2019-04-06T20:41:07.511Z,100223.96
2019-04-06T20:43:40.454Z,100227.99
2019-04-06T20:46:13.558Z,100222.78
2019-04-06T20:48:46.469Z,100222.85
2019-04-06T20:51:19.383Z,100219.84
2019-04-06T20:53:52.283Z,100219.92
2019-04-06T20:56:25.213Z,100223.52
2019-04-06T20:58:58.657Z,100225.73
2019-04-06T21:01:32.361Z,100217.48
2019-04-06T21:04:05.422Z,100221.01
2019-04-06T21:06:38.348Z,100218.84
2019-04-06T21:09:15.087Z,100214.94
2019-04-06T21:11:48.209Z,100214.94
2019-04-06T21:14:21.568Z,100214.95
2019-04-06T21:16:54.760Z,100212.34
2019-04-06T21:19:28.157Z,100213.24
2019-04-06T21:22:01.455Z,100215.51
2019-04-06T21:24:35.014Z,100217.33
2019-04-06T21:27:08.540Z,100215.63
2019-04-06T21:29:41.518Z,100214.80
2019-04-06T21:32:15.069Z,100204.31
2019-04-06T21:34:48.564Z,100206.05
2019-04-06T21:37:21.424Z,100204.78
2019-04-06T21:39:54.335Z,100202.20
2019-04-06T21:42:27.582Z,100201.81
2019-04-06T21:45:00.616Z,100200.94
2019-04-06T21:47:34.008Z,100194.39
2019-04-06T21:50:08.135Z,100189.56
2019-04-06T21:52:41.645Z,100193.13
2019-04-06T21:55:16.155Z,100195.33
2019-04-06T21:57:49.142Z,100191.81
2019-04-06T22:00:38.587Z,100187.47
2019-04-06T22:03:13.197Z,100187.47
2019-04-06T22:05:46.456Z,100187.50
2019-04-06T22:08:19.513Z,100182.67
2019-04-06T22:10:52.862Z,100182.23
2019-04-06T22:13:27.291Z,100182.72
2019-04-06T22:16:00.745Z,100178.38
2019-04-06T22:18:33.935Z,100177.98
2019-04-06T22:21:07.056Z,100177.10
2019-04-06T22:23:43.951Z,100174.03
2019-04-06T22:26:14.624Z,100172.72
2019-04-06T22:28:48.040Z,100172.76
2019-04-06T22:31:21.338Z,100172.31
2019-04-06T22:33:54.298Z,100167.97
2019-04-06T22:36:27.708Z,100167.57
2019-04-06T22:39:00.721Z,100170.65
2019-04-06T22:41:35.474Z,100167.61
2019-04-06T22:44:08.566Z,100176.40
2019-04-06T22:46:41.846Z,100168.94
2019-04-06T22:49:14.798Z,100169.45
2019-04-06T22:51:48.277Z,100167.25
2019-04-06T22:54:22.972Z,100169.89
2019-04-06T22:56:55.864Z,100170.33
2019-04-06T22:59:28.895Z,100171.64
2019-04-06T23:02:01.850Z,100164.62
2019-04-06T23:05:00.116Z,100164.66
2019-04-06T23:07:33.650Z,100165.97
2019-04-06T23:10:06.831Z,100164.25
2019-04-06T23:12:40.400Z,100171.27
2019-04-06T23:15:13.607Z,100165.13
2019-04-06T23:17:46.646Z,100159.86
2019-04-06T23:20:19.440Z,100162.94
2019-04-06T23:22:52.584Z,100165.57
2019-04-06T23:25:25.622Z,100162.49
2019-04-06T23:27:58.720Z,100162.09
2019-04-06T23:30:31.793Z,100159.45
2019-04-06T23:33:04.996Z,100155.13
2019-04-06T23:35:37.937Z,100164.81
2019-04-06T23:38:11.234Z,100159.11
2019-04-06T23:40:44.319Z,100155.63
2019-04-06T23:43:17.213Z,100162.23
2019-04-06T23:45:50.378Z,100163.97
2019-04-06T23:48:23.376Z,100159.61
2019-04-06T23:50:56.177Z,100161.80
2019-04-06T23:53:29.371Z,100163.12
2019-04-06T23:56:02.692Z,100164.02
2019-04-06T23:58:35.615Z,100160.09
